East Hannibal, Illinois
Current Conditions -  °F | °C
As of 3:54 PM on Wednesday 26 Nov 2014 (Local Time) from KUIN Reporting Station
Haze Haze  
Wind Chill: 24°   Ceiling: 700
Heat Index: 32°   Visibility: 1.7mi
Dew Point: 30°   Wind: 9mph
Humidity: 92%   Direction: 100°E
Pressure: 30"   Gusts: NA
Location:  39.7174°N, 91.2595°W
Report Text: KUIN 262154Z AUTO 10008KT 1 3/4SM BR OVC007 00/M01 A3000 RMK AO2 UPE04FZRAB04E39 CIG 004V010 SLP167 P0000 I1003 T00001011
Loading
Personal Weather Stations






























Interactive Weather Map New forecast layout! Learn more

10-Day Weather Forecast

Advertisements
Track Severe Weather on mobile